Time;durP1;ratioP1;P1;durP2;ratioP2;P2;SDS_P1;SDS_P2;PMS_P1;PMS_P2;Temp;Humidity;BMP_temperature;BMP_pressure;BME280_temperature;BME280_humidity;BME280_pressure;Samples;Min_cycle;Max_cycle;Signal;HPM_P1;HPM_P2
2021/01/06 00:00:15;;;;;;;20.85;11.82;;;1.40;99.90;;;;;;4987131;28;20836;-73
2021/01/06 00:02:43;;;;;;;19.02;11.60;;;1.50;99.90;;;;;;4986500;28;20258;-73
2021/01/06 00:05:15;;;;;;;17.15;12.10;;;1.40;99.90;;;;;;4987710;28;20648;-74
2021/01/06 00:07:43;;;;;;;20.00;13.10;;;1.40;99.90;;;;;;4987190;28;20258;-73
2021/01/06 00:10:13;;;;;;;16.88;11.07;;;1.50;99.90;;;;;;4986330;28;20281;-73
2021/01/06 00:12:40;;;;;;;18.73;11.48;;;1.50;99.90;;;;;;4985555;28;20578;-74
2021/01/06 00:15:09;;;;;;;22.88;12.32;;;1.50;99.90;;;;;;4985766;28;20233;-74
2021/01/06 00:17:35;;;;;;;17.27;12.10;;;1.50;99.90;;;;;;4985681;28;20211;-75
2021/01/06 00:20:07;;;;;;;22.70;12.50;;;1.50;99.90;;;;;;4986791;28;20525;-75
2021/01/06 00:22:34;;;;;;;16.50;11.27;;;1.50;99.90;;;;;;4986921;28;20207;-72
2021/01/06 00:25:04;;;;;;;17.58;12.52;;;1.50;99.90;;;;;;4989830;28;20234;-74
2021/01/06 00:27:31;;;;;;;16.27;11.75;;;1.50;99.90;;;;;;4987224;28;20207;-74
2021/01/06 00:29:58;;;;;;;19.08;11.65;;;1.50;99.90;;;;;;4986653;28;20207;-74
2021/01/06 00:32:24;;;;;;;20.83;12.85;;;1.40;99.90;;;;;;4986664;28;20207;-74
2021/01/06 00:34:52;;;;;;;18.58;12.27;;;1.40;99.90;;;;;;4987239;28;20254;-75
2021/01/06 00:37:19;;;;;;;23.55;12.52;;;1.40;99.90;;;;;;4987154;28;20356;-73
2021/01/06 00:39:47;;;;;;;18.45;12.23;;;1.50;99.90;;;;;;4986210;28;20207;-74
2021/01/06 00:42:14;;;;;;;19.60;12.38;;;1.50;99.90;;;;;;4985888;28;20217;-73
2021/01/06 00:44:44;;;;;;;20.05;12.85;;;1.50;99.90;;;;;;4986586;28;20317;-75
2021/01/06 00:47:10;;;;;;;20.90;12.98;;;1.50;99.90;;;;;;4986358;28;20207;-73
2021/01/06 00:49:37;;;;;;;22.02;13.63;;;1.50;99.90;;;;;;4985423;28;20211;-74
2021/01/06 00:52:04;;;;;;;19.33;12.10;;;1.50;99.90;;;;;;4984712;28;20323;-74
2021/01/06 00:54:34;;;;;;;19.15;12.98;;;1.50;99.90;;;;;;4985136;28;20716;-74
2021/01/06 00:57:00;;;;;;;20.63;12.50;;;1.50;99.90;;;;;;4985072;28;20261;-74
2021/01/06 00:59:27;;;;;;;17.20;12.23;;;1.50;99.90;;;;;;4985520;28;20207;-75
2021/01/06 01:01:54;;;;;;;21.75;13.45;;;1.50;99.90;;;;;;4984172;28;20215;-74
2021/01/06 01:04:21;;;;;;;17.23;12.18;;;1.40;99.90;;;;;;4985282;28;20257;-75
2021/01/06 01:06:50;;;;;;;18.27;12.50;;;1.40;99.90;;;;;;4985183;28;20213;-74
2021/01/06 01:09:17;;;;;;;15.60;10.07;;;1.40;99.90;;;;;;4984429;28;20203;-74
2021/01/06 01:11:45;;;;;;;16.52;12.05;;;1.30;99.90;;;;;;4984252;28;20748;-74
2021/01/06 01:14:12;;;;;;;17.77;11.95;;;1.40;99.90;;;;;;4984977;28;20705;-73
2021/01/06 01:16:42;;;;;;;17.67;12.18;;;1.40;99.90;;;;;;4984563;28;20207;-74
2021/01/06 01:19:09;;;;;;;16.45;10.00;;;1.40;99.90;;;;;;4984808;28;20309;-74
2021/01/06 01:21:36;;;;;;;17.65;11.70;;;1.30;99.90;;;;;;4985109;28;20210;-73
2021/01/06 01:24:04;;;;;;;14.60;10.98;;;1.30;99.90;;;;;;4985267;28;20679;-75
2021/01/06 01:26:31;;;;;;;16.48;11.63;;;1.30;99.90;;;;;;4985548;28;20215;-73
2021/01/06 01:28:59;;;;;;;15.80;11.35;;;1.20;99.90;;;;;;4984199;28;20218;-75
2021/01/06 01:31:31;;;;;;;13.85;10.90;;;1.20;99.90;;;;;;4986398;28;20257;-75
2021/01/06 01:33:58;;;;;;;12.73;10.65;;;1.30;99.90;;;;;;4987585;28;20645;-75
2021/01/06 01:36:26;;;;;;;16.33;9.95;;;1.30;99.90;;;;;;4987845;28;20207;-74
2021/01/06 01:38:53;;;;;;;17.75;12.65;;;1.30;99.90;;;;;;4988130;28;20220;-74
2021/01/06 01:41:24;;;;;;;16.95;10.70;;;1.30;99.90;;;;;;4987567;28;20215;-75
2021/01/06 01:43:50;;;;;;;17.15;11.18;;;1.20;99.90;;;;;;4987202;28;20702;-75
2021/01/06 01:46:50;;;;;;;15.45;10.88;;;1.20;99.90;;;;;;4987520;28;20296;-74
2021/01/06 01:49:21;;;;;;;18.60;10.55;;;1.20;99.90;;;;;;4988071;28;20269;-74
2021/01/06 01:51:57;;;;;;;14.25;10.27;;;1.20;99.90;;;;;;4987107;28;20368;-74
2021/01/06 01:54:26;;;;;;;14.65;10.05;;;1.20;99.90;;;;;;4986959;28;20720;-74
2021/01/06 01:56:57;;;;;;;16.98;12.18;;;1.20;99.90;;;;;;4987493;28;20302;-74
2021/01/06 01:59:31;;;;;;;15.30;10.35;;;1.20;99.90;;;;;;4987246;28;20207;-74
2021/01/06 02:02:04;;;;;;;16.42;10.70;;;1.20;99.90;;;;;;4986506;28;20211;-74
2021/01/06 02:04:36;;;;;;;14.20;10.65;;;1.20;99.90;;;;;;4987743;28;20234;-74
2021/01/06 02:07:07;;;;;;;13.05;10.05;;;1.20;99.90;;;;;;4988052;28;20234;-74
2021/01/06 02:09:40;;;;;;;17.00;10.57;;;1.20;99.90;;;;;;4989707;28;20211;-74
2021/01/06 02:12:13;;;;;;;14.27;9.90;;;1.30;99.90;;;;;;4989121;28;20215;-75
2021/01/06 02:14:50;;;;;;;15.10;10.77;;;1.30;99.90;;;;;;4987667;28;20522;-74
2021/01/06 02:17:18;;;;;;;15.40;9.95;;;1.20;99.90;;;;;;4988408;28;20210;-74
2021/01/06 02:19:46;;;;;;;16.42;11.35;;;1.20;99.90;;;;;;5073717;23;21061;-73
2021/01/06 02:22:16;;;;;;;14.32;9.32;;;1.20;99.90;;;;;;5010124;28;20569;-74
2021/01/06 02:24:43;;;;;;;16.50;10.90;;;1.20;99.90;;;;;;5011447;28;20222;-74
2021/01/06 02:27:10;;;;;;;15.85;10.60;;;1.20;99.90;;;;;;5012007;28;20277;-74
2021/01/06 02:29:38;;;;;;;14.90;9.88;;;1.10;99.90;;;;;;5011491;28;20221;-73
2021/01/06 02:32:05;;;;;;;14.75;10.93;;;1.20;99.90;;;;;;5011785;28;20585;-73
2021/01/06 02:34:34;;;;;;;13.00;10.35;;;1.10;99.90;;;;;;5012008;28;20598;-73
2021/01/06 02:37:00;;;;;;;14.82;10.27;;;1.10;99.90;;;;;;5012378;28;20214;-75
2021/01/06 02:39:27;;;;;;;14.05;10.45;;;1.20;99.90;;;;;;5012079;28;20203;-74
2021/01/06 02:41:54;;;;;;;17.27;11.20;;;1.20;99.90;;;;;;5010294;28;20697;-73
2021/01/06 02:44:20;;;;;;;17.90;12.10;;;1.20;99.90;;;;;;5008740;28;20218;-74
2021/01/06 02:46:48;;;;;;;15.25;10.93;;;1.20;99.90;;;;;;5011926;28;20210;-73
2021/01/06 02:49:14;;;;;;;14.10;10.48;;;1.20;99.90;;;;;;5012207;28;20585;-73
2021/01/06 02:51:44;;;;;;;19.77;11.40;;;1.20;99.90;;;;;;5011254;28;20631;-74
2021/01/06 02:54:15;;;;;;;14.70;10.48;;;1.20;99.90;;;;;;5011848;28;20241;-73
2021/01/06 02:56:43;;;;;;;11.88;10.05;;;1.20;99.90;;;;;;5011831;28;20578;-74
2021/01/06 02:59:11;;;;;;;14.65;10.45;;;1.20;99.90;;;;;;5011956;28;20206;-74
2021/01/06 03:01:40;;;;;;;14.73;10.20;;;1.20;99.90;;;;;;5011136;28;20210;-74
2021/01/06 03:04:08;;;;;;;15.80;10.38;;;1.20;99.90;;;;;;5011826;28;20246;-74
2021/01/06 03:06:42;;;;;;;13.50;10.05;;;1.20;99.90;;;;;;5011476;28;20252;-74
2021/01/06 03:09:24;;;;;;;12.07;9.85;;;1.20;99.90;;;;;;5011833;28;20202;-73
2021/01/06 03:11:51;;;;;;;14.93;10.75;;;1.20;99.90;;;;;;5011025;28;20213;-74
2021/01/06 03:14:18;;;;;;;13.63;9.90;;;1.20;99.90;;;;;;5011508;28;20232;-74
2021/01/06 03:16:44;;;;;;;12.85;10.05;;;1.20;99.90;;;;;;5011457;28;20711;-73
2021/01/06 03:19:12;;;;;;;11.63;8.75;;;1.20;99.90;;;;;;5008116;28;20736;-75
2021/01/06 03:21:42;;;;;;;13.05;9.05;;;1.20;99.90;;;;;;5010092;28;20774;-74
2021/01/06 03:24:10;;;;;;;12.27;9.05;;;1.20;99.90;;;;;;5011302;28;20226;-74
2021/01/06 03:26:39;;;;;;;13.18;9.40;;;1.20;99.90;;;;;;5011162;28;20742;-74
2021/01/06 03:29:07;;;;;;;11.98;8.20;;;1.20;99.90;;;;;;5011452;28;20214;-73
2021/01/06 03:31:39;;;;;;;11.18;8.80;;;1.10;99.90;;;;;;5010792;28;20238;-74
2021/01/06 03:34:13;;;;;;;12.20;8.95;;;1.10;99.90;;;;;;5011209;28;20256;-73
2021/01/06 03:36:43;;;;;;;11.35;8.70;;;1.10;99.90;;;;;;5011039;28;20198;-74
2021/01/06 03:39:16;;;;;;;9.50;7.50;;;1.10;99.90;;;;;;5011186;28;20232;-74
2021/01/06 03:41:43;;;;;;;12.30;8.07;;;1.10;99.90;;;;;;5010229;28;20249;-73
2021/01/06 03:44:12;;;;;;;12.60;7.85;;;1.00;99.90;;;;;;5010932;28;20722;-74
2021/01/06 03:46:45;;;;;;;9.02;7.10;;;1.00;99.90;;;;;;5010780;28;20210;-73
2021/01/06 03:49:37;;;;;;;9.90;7.32;;;1.00;99.90;;;;;;5011044;28;20218;-73
2021/01/06 03:52:13;;;;;;;10.63;6.93;;;1.00;99.90;;;;;;5010295;28;20203;-73
2021/01/06 03:54:45;;;;;;;9.10;7.15;;;1.00;99.90;;;;;;5010171;28;20237;-74
2021/01/06 03:57:13;;;;;;;10.40;7.47;;;1.00;99.90;;;;;;5010927;28;20214;-74
2021/01/06 03:59:43;;;;;;;9.98;7.80;;;1.00;99.90;;;;;;5010583;28;20207;-73
2021/01/06 04:02:12;;;;;;;9.13;6.82;;;1.00;99.90;;;;;;5010370;28;20206;-74
2021/01/06 04:04:43;;;;;;;8.85;5.85;;;1.00;99.90;;;;;;5010441;28;20214;-75
2021/01/06 04:07:15;;;;;;;11.10;7.10;;;1.00;99.90;;;;;;5010754;28;20202;-74
2021/01/06 04:09:47;;;;;;;9.25;6.82;;;0.90;99.90;;;;;;5010370;28;20202;-74
2021/01/06 04:12:16;;;;;;;9.23;6.05;;;0.90;99.90;;;;;;5010085;28;20202;-74
2021/01/06 04:14:44;;;;;;;8.52;6.43;;;0.90;99.90;;;;;;5010223;28;20341;-74
2021/01/06 04:17:18;;;;;;;8.73;7.20;;;0.90;99.90;;;;;;5010517;28;20216;-73
2021/01/06 04:19:47;;;;;;;9.57;6.80;;;0.90;99.90;;;;;;5010117;28;20213;-74
2021/01/06 04:22:13;;;;;;;9.10;6.97;;;0.90;99.90;;;;;;5009740;28;20210;-74
2021/01/06 04:24:40;;;;;;;8.50;6.85;;;1.00;99.90;;;;;;5010073;28;20917;-74
2021/01/06 04:27:06;;;;;;;10.32;7.85;;;1.00;99.90;;;;;;5010261;28;20209;-73
2021/01/06 04:29:33;;;;;;;8.93;6.80;;;1.00;99.90;;;;;;5010137;28;20210;-75
2021/01/06 04:32:00;;;;;;;9.60;7.20;;;0.90;99.90;;;;;;5009829;28;20214;-74
2021/01/06 04:34:26;;;;;;;10.38;7.80;;;0.90;99.90;;;;;;5009944;28;20232;-74
2021/01/06 04:36:52;;;;;;;11.07;8.25;;;1.00;99.90;;;;;;5010024;28;20210;-73
2021/01/06 04:39:18;;;;;;;10.60;7.50;;;1.00;99.90;;;;;;5010037;28;20206;-73
2021/01/06 04:41:54;;;;;;;12.93;8.40;;;0.90;99.90;;;;;;5009031;28;20213;-73
2021/01/06 04:44:46;;;;;;;11.68;7.57;;;0.90;99.90;;;;;;5009952;28;20218;-73
2021/01/06 04:48:03;;;;;;;10.95;7.97;;;0.80;99.90;;;;;;5009649;28;20202;-74
2021/01/06 04:51:03;;;;;;;10.73;8.13;;;0.80;99.90;;;;;;4929900;29;20255;-73
2021/01/06 04:53:42;;;;;;;11.10;8.55;;;0.80;99.90;;;;;;5007981;28;20300;-73
2021/01/06 04:56:26;;;;;;;9.43;7.90;;;0.80;99.90;;;;;;5009827;28;20562;-73
2021/01/06 04:59:03;;;;;;;11.38;8.63;;;0.80;99.90;;;;;;5009841;28;20765;-73
2021/01/06 05:01:45;;;;;;;11.52;8.70;;;0.80;99.90;;;;;;5009670;28;20206;-73
2021/01/06 05:04:38;;;;;;;13.88;8.77;;;0.80;99.90;;;;;;5009929;28;20226;-72
2021/01/06 05:07:06;;;;;;;9.15;7.80;;;0.80;99.90;;;;;;5009302;28;20676;-72
2021/01/06 05:09:52;;;;;;;13.48;9.02;;;0.80;99.90;;;;;;5009386;28;20261;-73
2021/01/06 05:12:25;;;;;;;11.68;8.65;;;0.90;99.90;;;;;;5009174;28;20221;-74
2021/01/06 05:14:57;;;;;;;12.50;7.70;;;0.90;99.90;;;;;;5009358;28;20222;-75
2021/01/06 05:17:23;;;;;;;13.73;9.18;;;0.90;99.90;;;;;;5009626;28;20639;-73
2021/01/06 05:19:51;;;;;;;10.95;8.48;;;0.90;99.90;;;;;;5009121;28;20213;-73
2021/01/06 05:22:18;;;;;;;12.20;9.73;;;0.90;99.90;;;;;;5009016;28;20213;-74
2021/01/06 05:24:47;;;;;;;11.45;8.98;;;0.80;99.90;;;;;;5009085;28;20222;-74
2021/01/06 05:27:21;;;;;;;12.50;8.55;;;0.70;99.90;;;;;;5009487;28;20210;-73
2021/01/06 05:29:49;;;;;;;12.30;8.90;;;0.70;99.90;;;;;;5009389;28;20206;-74
2021/01/06 05:32:19;;;;;;;10.90;8.73;;;0.70;99.90;;;;;;5008834;28;20208;-74
2021/01/06 05:34:49;;;;;;;12.50;8.55;;;0.70;99.90;;;;;;5009115;28;20230;-74
2021/01/06 05:37:17;;;;;;;11.27;7.50;;;0.80;99.90;;;;;;5009395;28;20206;-74
2021/01/06 05:39:44;;;;;;;10.68;8.10;;;0.80;99.90;;;;;;5009011;28;20233;-73
2021/01/06 05:42:13;;;;;;;13.40;10.13;;;0.80;99.90;;;;;;5008973;28;20206;-73
2021/01/06 05:44:40;;;;;;;11.27;7.88;;;0.80;99.90;;;;;;5009014;28;20219;-74
2021/01/06 05:47:15;;;;;;;13.30;8.50;;;0.80;99.90;;;;;;5009413;28;20571;-74
2021/01/06 05:49:41;;;;;;;10.80;7.97;;;0.80;99.90;;;;;;5009191;28;20212;-73
2021/01/06 05:52:10;;;;;;;12.18;8.77;;;0.70;99.90;;;;;;5008993;28;20198;-74
2021/01/06 05:54:41;;;;;;;12.55;8.48;;;0.70;99.90;;;;;;5009004;28;20222;-73
2021/01/06 05:57:20;;;;;;;13.90;9.70;;;0.70;99.90;;;;;;5009447;28;20207;-73
2021/01/06 06:00:24;;;;;;;11.77;8.75;;;0.80;99.90;;;;;;5008973;28;20230;-73
2021/01/06 06:03:15;;;;;;;13.20;8.52;;;0.80;99.90;;;;;;5008504;28;20237;-73
2021/01/06 06:05:45;;;;;;;12.98;9.23;;;0.70;99.90;;;;;;5008251;28;20284;-73
2021/01/06 06:08:36;;;;;;;13.07;9.50;;;0.70;99.90;;;;;;5009183;28;20577;-74
2021/01/06 06:11:27;;;;;;;11.50;8.68;;;0.80;99.90;;;;;;5009123;28;20203;-74
2021/01/06 06:14:16;;;;;;;11.70;8.05;;;0.80;99.90;;;;;;5008329;28;20230;-73
2021/01/06 06:16:53;;;;;;;11.77;8.65;;;0.80;99.90;;;;;;5009957;28;20678;-73
2021/01/06 06:19:34;;;;;;;14.43;9.10;;;0.80;99.90;;;;;;5014820;28;20257;-74
2021/01/06 06:22:11;;;;;;;11.45;8.70;;;0.80;99.90;;;;;;5013081;28;20226;-74
2021/01/06 06:24:44;;;;;;;12.75;9.32;;;0.80;99.90;;;;;;5012273;28;20222;-72
2021/01/06 06:27:39;;;;;;;10.27;8.23;;;0.80;99.90;;;;;;5012738;28;20206;-73
2021/01/06 06:30:25;;;;;;;12.65;8.85;;;0.70;99.90;;;;;;5012388;28;20203;-75
2021/01/06 06:32:51;;;;;;;12.70;9.20;;;0.70;99.90;;;;;;5011690;28;20224;-74
2021/01/06 06:35:23;;;;;;;11.98;8.68;;;0.70;99.90;;;;;;5012043;28;20236;-74
2021/01/06 06:37:52;;;;;;;9.18;7.85;;;0.70;99.90;;;;;;5011809;28;20211;-75
2021/01/06 06:40:19;;;;;;;12.32;8.95;;;0.70;99.90;;;;;;5012126;28;20229;-73
2021/01/06 06:42:53;;;;;;;10.27;7.82;;;0.70;99.90;;;;;;5005593;28;20203;-74
2021/01/06 06:45:43;;;;;;;12.25;8.48;;;0.80;99.90;;;;;;4992291;28;20229;-73
2021/01/06 06:48:17;;;;;;;11.98;8.52;;;0.80;99.90;;;;;;4992171;28;20667;-73
2021/01/06 06:51:03;;;;;;;11.15;8.15;;;0.70;99.90;;;;;;4991553;28;20206;-73
2021/01/06 06:53:39;;;;;;;9.50;7.65;;;0.70;99.90;;;;;;4991486;28;20792;-74
2021/01/06 06:56:19;;;;;;;10.80;8.35;;;0.70;99.90;;;;;;4992380;28;20207;-74
2021/01/06 06:58:50;;;;;;;11.95;8.50;;;0.70;99.90;;;;;;4992113;28;20206;-75
2021/01/06 07:01:21;;;;;;;13.45;8.45;;;0.60;99.90;;;;;;4992163;28;20240;-73
2021/01/06 07:03:56;;;;;;;13.20;8.30;;;0.60;99.90;;;;;;4991456;28;20300;-76
2021/01/06 07:06:23;;;;;;;11.85;7.53;;;0.60;99.90;;;;;;4992167;28;20206;-73
2021/01/06 07:08:52;;;;;;;10.52;8.00;;;0.60;99.90;;;;;;4991902;28;20199;-74
2021/01/06 07:11:23;;;;;;;9.73;8.00;;;0.60;99.90;;;;;;4991768;28;20607;-73
2021/01/06 07:13:56;;;;;;;10.55;7.75;;;0.60;99.90;;;;;;4991168;28;20237;-74
2021/01/06 07:16:32;;;;;;;9.52;7.95;;;0.60;99.90;;;;;;4991596;28;20199;-74
2021/01/06 07:19:16;;;;;;;9.35;7.25;;;0.60;99.90;;;;;;4991899;28;20273;-75
2021/01/06 07:21:42;;;;;;;12.48;7.78;;;0.50;99.90;;;;;;4990845;28;20225;-72
2021/01/06 07:24:17;;;;;;;19.50;11.05;;;0.50;99.90;;;;;;4991812;28;20219;-72
2021/01/06 07:26:46;;;;;;;24.27;15.40;;;0.60;99.90;;;;;;4991695;28;20214;-74
2021/01/06 07:29:16;;;;;;;18.48;12.52;;;0.60;99.90;;;;;;4991031;28;20203;-73
2021/01/06 07:31:52;;;;;;;11.80;8.90;;;0.60;99.90;;;;;;4990836;28;20207;-73
2021/01/06 07:34:21;;;;;;;10.68;7.55;;;0.60;99.90;;;;;;4991212;28;20233;-73
2021/01/06 07:36:51;;;;;;;14.55;9.65;;;0.70;99.90;;;;;;4991208;28;20253;-74
2021/01/06 07:39:22;;;;;;;11.65;8.50;;;0.60;99.90;;;;;;4991373;28;20207;-72
2021/01/06 07:41:49;;;;;;;12.75;9.05;;;0.60;99.90;;;;;;4990623;28;20211;-73
2021/01/06 07:44:24;;;;;;;11.48;8.45;;;0.70;99.90;;;;;;4991181;28;20230;-72
2021/01/06 07:46:57;;;;;;;11.18;7.97;;;0.70;99.90;;;;;;4991273;28;20256;-73
2021/01/06 07:49:42;;;;;;;12.65;8.18;;;0.70;99.90;;;;;;4991391;28;20594;-73
2021/01/06 07:52:27;;;;;;;11.10;8.30;;;0.70;99.90;;;;;;4979424;28;20691;-72
2021/01/06 07:54:57;;;;;;;11.30;7.70;;;0.70;99.90;;;;;;4990987;28;20293;-72
2021/01/06 07:57:35;;;;;;;12.82;7.65;;;0.60;99.90;;;;;;4990655;28;20250;-72
2021/01/06 08:00:07;;;;;;;11.25;7.30;;;0.60;99.90;;;;;;4990693;28;20598;-72
2021/01/06 08:02:41;;;;;;;13.15;9.15;;;0.60;99.90;;;;;;4990248;28;20265;-72
2021/01/06 08:05:25;;;;;;;15.85;8.50;;;0.70;99.90;;;;;;4990999;28;20223;-71
2021/01/06 08:08:02;;;;;;;10.85;7.55;;;0.70;99.90;;;;;;4990444;28;20202;-71
2021/01/06 08:10:30;;;;;;;10.60;7.50;;;0.80;99.90;;;;;;4990615;28;20203;-71
2021/01/06 08:13:14;;;;;;;12.68;8.50;;;0.80;99.90;;;;;;4990158;28;20588;-72
2021/01/06 08:15:43;;;;;;;10.43;7.60;;;0.70;99.90;;;;;;4990400;28;20230;-72
2021/01/06 08:18:17;;;;;;;12.73;8.45;;;0.80;99.90;;;;;;4990725;28;20210;-72
2021/01/06 08:20:55;;;;;;;10.35;7.65;;;0.90;99.90;;;;;;5060825;23;21430;-79
2021/01/06 08:23:28;;;;;;;10.68;8.32;;;0.90;99.90;;;;;;5006885;28;20240;-78
2021/01/06 08:26:00;;;;;;;12.68;8.70;;;0.90;99.90;;;;;;5009904;28;20206;-76
2021/01/06 08:28:29;;;;;;;9.77;7.75;;;0.90;99.90;;;;;;5010285;28;20561;-77
2021/01/06 08:31:08;;;;;;;10.38;8.00;;;0.80;99.90;;;;;;5010508;28;20206;-77
2021/01/06 08:33:46;;;;;;;9.68;7.18;;;0.90;99.90;;;;;;5010234;28;20228;-77
2021/01/06 08:36:20;;;;;;;11.60;8.68;;;0.90;99.90;;;;;;5011035;28;20210;-77
2021/01/06 08:38:46;;;;;;;11.25;8.38;;;0.80;99.90;;;;;;5010042;28;20218;-78
2021/01/06 08:41:17;;;;;;;10.63;8.27;;;0.80;99.90;;;;;;5010170;28;20707;-77
2021/01/06 08:43:44;;;;;;;9.75;7.35;;;0.70;99.90;;;;;;5008788;28;20223;-78
2021/01/06 08:46:22;;;;;;;11.35;7.78;;;0.80;99.90;;;;;;5009725;28;20207;-77
2021/01/06 08:48:49;;;;;;;10.32;7.55;;;0.90;99.90;;;;;;5009480;28;20206;-77
2021/01/06 08:51:28;;;;;;;9.40;8.18;;;0.80;99.90;;;;;;5009137;28;20218;-77
2021/01/06 08:53:54;;;;;;;9.52;7.57;;;0.80;99.90;;;;;;5008877;28;20233;-77
2021/01/06 08:56:23;;;;;;;10.82;8.40;;;0.80;99.90;;;;;;5009297;28;20553;-77
2021/01/06 08:58:51;;;;;;;10.93;8.70;;;0.80;99.90;;;;;;5008816;28;20206;-78
2021/01/06 09:01:26;;;;;;;12.27;8.40;;;0.90;99.90;;;;;;5009194;28;20221;-77
2021/01/06 09:04:01;;;;;;;8.93;7.82;;;0.90;99.90;;;;;;5008317;28;20256;-78
2021/01/06 09:06:29;;;;;;;7.40;6.40;;;0.90;99.90;;;;;;5009741;28;20232;-77
2021/01/06 09:09:00;;;;;;;9.25;7.25;;;0.90;99.90;;;;;;5008975;28;20198;-77
2021/01/06 09:11:28;;;;;;;11.05;7.97;;;0.90;99.90;;;;;;5009191;28;20225;-77
2021/01/06 09:14:02;;;;;;;12.45;7.00;;;0.90;99.90;;;;;;5008392;28;20570;-76
2021/01/06 09:16:39;;;;;;;8.70;7.00;;;0.90;99.90;;;;;;5009502;28;20206;-77
2021/01/06 09:19:13;;;;;;;7.18;5.90;;;0.90;99.90;;;;;;5008916;28;20202;-77
2021/01/06 09:21:40;;;;;;;7.93;5.15;;;0.90;99.90;;;;;;5008013;28;20221;-78
2021/01/06 09:24:12;;;;;;;6.40;5.80;;;0.90;99.90;;;;;;4993159;28;20242;-77
2021/01/06 09:26:40;;;;;;;8.55;6.40;;;1.00;99.90;;;;;;4988638;28;20343;-76
2021/01/06 09:29:10;;;;;;;8.23;6.80;;;1.00;99.90;;;;;;4988425;28;20203;-76
2021/01/06 09:31:40;;;;;;;7.15;6.30;;;1.00;99.90;;;;;;5007162;28;20198;-76
2021/01/06 09:34:09;;;;;;;7.43;5.93;;;1.00;99.90;;;;;;5007109;28;20226;-74
2021/01/06 09:36:37;;;;;;;7.60;6.35;;;1.00;99.90;;;;;;5008417;28;20202;-77
2021/01/06 09:39:07;;;;;;;7.47;6.10;;;1.10;99.90;;;;;;4993948;28;20846;-76
2021/01/06 09:41:37;;;;;;;7.25;6.43;;;1.10;99.90;;;;;;5007737;28;20209;-76
2021/01/06 09:44:09;;;;;;;7.90;5.88;;;1.10;99.90;;;;;;4991435;28;20215;-75
2021/01/06 09:46:50;;;;;;;8.35;6.70;;;1.20;99.90;;;;;;4996268;28;20198;-76
2021/01/06 09:49:22;;;;;;;7.28;5.88;;;1.20;99.90;;;;;;5005197;28;20294;-76
2021/01/06 09:51:56;;;;;;;7.15;6.45;;;1.20;99.90;;;;;;4996547;28;20246;-76
2021/01/06 09:54:23;;;;;;;7.10;6.35;;;1.10;99.90;;;;;;5005915;28;20618;-76
2021/01/06 09:56:49;;;;;;;7.93;6.80;;;1.10;99.90;;;;;;4991895;28;20203;-75
2021/01/06 09:59:20;;;;;;;7.32;5.35;;;1.00;99.90;;;;;;4992521;28;20195;-75
2021/01/06 10:01:55;;;;;;;7.03;6.05;;;1.10;99.90;;;;;;5001423;28;20222;-77
2021/01/06 10:04:26;;;;;;;8.93;6.65;;;1.10;99.90;;;;;;5011762;28;20214;-77
2021/01/06 10:07:14;;;;;;;8.50;6.50;;;1.10;99.90;;;;;;5011434;28;20229;-75
2021/01/06 10:09:43;;;;;;;9.75;7.15;;;1.20;99.90;;;;;;4999911;28;20199;-76
2021/01/06 10:12:47;;;;;;;7.07;6.10;;;1.10;99.90;;;;;;4990565;28;20695;-76
2021/01/06 10:15:31;;;;;;;6.00;5.40;;;1.20;99.90;;;;;;4988743;28;20598;-77
2021/01/06 10:18:17;;;;;;;7.82;6.10;;;1.20;99.90;;;;;;4990800;28;20428;-77
2021/01/06 10:20:50;;;;;;;7.10;5.90;;;1.20;99.90;;;;;;5007860;28;20202;-77
2021/01/06 10:23:30;;;;;;;8.40;5.75;;;1.30;99.90;;;;;;5009960;28;20723;-76
2021/01/06 10:26:05;;;;;;;6.85;6.10;;;1.30;99.90;;;;;;4999912;28;20202;-75
2021/01/06 10:28:41;;;;;;;6.65;5.60;;;1.30;99.90;;;;;;4991187;28;20195;-76
2021/01/06 10:31:11;;;;;;;7.00;6.35;;;1.20;99.90;;;;;;4990457;28;20207;-77
2021/01/06 10:34:02;;;;;;;7.13;5.50;;;1.30;99.90;;;;;;5001789;28;20214;-76
2021/01/06 10:36:57;;;;;;;7.72;6.47;;;1.40;99.90;;;;;;4993380;28;20671;-76
2021/01/06 10:39:27;;;;;;;8.70;6.93;;;1.40;99.90;;;;;;4999464;28;20290;-77
2021/01/06 10:42:01;;;;;;;6.65;5.93;;;1.40;99.90;;;;;;4990022;28;20199;-76
2021/01/06 10:44:31;;;;;;;8.90;6.53;;;1.40;99.90;;;;;;4995318;28;20597;-77
2021/01/06 10:47:39;;;;;;;5.97;5.32;;;1.40;99.90;;;;;;5002040;28;20198;-77
2021/01/06 10:50:48;;;;;;;6.57;5.78;;;1.50;99.90;;;;;;5009716;28;20203;-77
2021/01/06 10:53:20;;;;;;;8.05;6.53;;;1.40;99.90;;;;;;5009016;28;20805;-76
2021/01/06 10:55:53;;;;;;;6.40;5.75;;;1.40;99.90;;;;;;5009842;28;20222;-77
2021/01/06 10:58:36;;;;;;;5.68;5.18;;;1.40;99.90;;;;;;5009827;28;20202;-76
2021/01/06 11:01:32;;;;;;;7.97;5.57;;;1.40;99.90;;;;;;5009827;28;20206;-76
2021/01/06 11:04:15;;;;;;;8.10;5.50;;;1.40;99.90;;;;;;5008058;28;20710;-77
2021/01/06 11:06:53;;;;;;;5.95;4.93;;;1.40;99.90;;;;;;5009963;28;20209;-76
2021/01/06 11:09:46;;;;;;;6.55;5.38;;;1.40;99.90;;;;;;5009807;28;20236;-77
2021/01/06 11:12:28;;;;;;;7.45;5.60;;;1.40;99.90;;;;;;5009369;28;20213;-77
2021/01/06 11:15:24;;;;;;;5.95;5.07;;;1.30;99.90;;;;;;5009920;28;20292;-76
2021/01/06 11:18:18;;;;;;;7.18;6.10;;;1.30;99.90;;;;;;5006222;28;20625;-76
2021/01/06 11:20:48;;;;;;;6.57;5.38;;;1.30;99.90;;;;;;4996186;28;20217;-76
2021/01/06 11:23:58;;;;;;;7.38;5.43;;;1.40;99.90;;;;;;4988622;28;20199;-77
2021/01/06 11:26:50;;;;;;;8.07;6.13;;;1.40;99.90;;;;;;4948351;29;20220;-77
2021/01/06 11:29:24;;;;;;;6.20;5.57;;;1.30;99.90;;;;;;4947390;29;20873;-76
2021/01/06 11:32:23;;;;;;;6.90;5.90;;;1.30;99.90;;;;;;4978634;28;20200;-76
2021/01/06 11:35:06;;;;;;;6.70;5.35;;;1.30;99.90;;;;;;4984130;28;20225;-77
2021/01/06 11:37:37;;;;;;;6.22;5.55;;;1.30;99.90;;;;;;4989671;28;20203;-76
2021/01/06 11:40:06;;;;;;;7.28;6.40;;;1.30;99.90;;;;;;4988890;28;20199;-77
2021/01/06 11:42:50;;;;;;;8.70;6.03;;;1.40;99.90;;;;;;4992103;28;20269;-76
2021/01/06 11:45:21;;;;;;;6.60;5.63;;;1.40;99.90;;;;;;4989335;28;20618;-76
2021/01/06 11:47:50;;;;;;;6.30;5.70;;;1.50;99.90;;;;;;4989660;28;20214;-76
2021/01/06 11:50:36;;;;;;;7.43;6.32;;;1.60;99.90;;;;;;4989640;28;20578;-77
2021/01/06 11:53:25;;;;;;;8.25;6.30;;;1.50;99.90;;;;;;4988949;28;20203;-76
2021/01/06 11:56:04;;;;;;;7.47;5.85;;;1.60;99.90;;;;;;4985033;28;20227;-76
2021/01/06 11:58:46;;;;;;;5.50;4.85;;;1.60;99.90;;;;;;4989841;28;20784;-77
2021/01/06 12:01:23;;;;;;;6.43;5.82;;;1.60;99.90;;;;;;4989707;28;20225;-78
2021/01/06 12:04:27;;;;;;;6.85;6.15;;;1.60;99.90;;;;;;4989399;28;20227;-77
2021/01/06 12:07:16;;;;;;;7.10;6.22;;;1.60;99.90;;;;;;5004879;28;20229;-78
2021/01/06 12:09:51;;;;;;;8.45;5.80;;;1.60;99.90;;;;;;5010733;28;20210;-77
2021/01/06 12:12:43;;;;;;;6.55;5.82;;;1.60;99.90;;;;;;5009402;28;20217;-78
2021/01/06 12:15:32;;;;;;;7.07;6.03;;;1.60;99.90;;;;;;5009538;28;20230;-77
2021/01/06 12:18:04;;;;;;;6.07;4.90;;;1.60;99.90;;;;;;5011468;28;20583;-77
2021/01/06 12:20:34;;;;;;;6.97;6.38;;;1.60;99.90;;;;;;5011465;28;20209;-78
2021/01/06 12:23:24;;;;;;;7.55;6.20;;;1.70;99.90;;;;;;5011207;28;20230;-78
2021/01/06 12:25:52;;;;;;;8.10;6.38;;;1.70;99.90;;;;;;5012984;28;20202;-77
2021/01/06 12:28:30;;;;;;;7.90;6.30;;;1.70;99.90;;;;;;5012431;28;20218;-77
2021/01/06 12:31:13;;;;;;;10.00;6.60;;;1.80;99.90;;;;;;5011942;28;20202;-78
2021/01/06 12:33:44;;;;;;;8.25;6.50;;;1.70;99.90;;;;;;5011346;28;20276;-77
2021/01/06 12:36:25;;;;;;;7.22;5.90;;;1.80;99.90;;;;;;5012900;28;20588;-77
2021/01/06 12:38:54;;;;;;;9.50;7.20;;;1.70;99.90;;;;;;5011601;28;20194;-77
2021/01/06 12:41:22;;;;;;;8.05;6.22;;;1.70;99.90;;;;;;5011164;28;20206;-77
2021/01/06 12:44:10;;;;;;;7.53;6.75;;;1.70;99.90;;;;;;5012112;28;20230;-77
2021/01/06 12:46:42;;;;;;;8.13;7.32;;;1.80;99.90;;;;;;5013826;28;20198;-78
2021/01/06 12:49:34;;;;;;;8.43;7.53;;;1.70;99.90;;;;;;5012974;28;20212;-78
2021/01/06 12:52:18;;;;;;;9.88;7.00;;;1.70;99.90;;;;;;5009458;28;20206;-77
2021/01/06 12:54:48;;;;;;;9.45;7.57;;;1.70;99.90;;;;;;5009660;28;20229;-77
2021/01/06 12:57:19;;;;;;;11.20;7.97;;;1.80;99.90;;;;;;5009343;28;20210;-76
2021/01/06 12:59:50;;;;;;;10.00;8.13;;;1.80;99.90;;;;;;5008190;28;20238;-76
2021/01/06 13:02:26;;;;;;;11.98;7.85;;;1.90;99.90;;;;;;5008513;28;20230;-77
2021/01/06 13:04:54;;;;;;;8.75;6.38;;;2.00;99.90;;;;;;5007541;28;20222;-76
2021/01/06 13:07:26;;;;;;;8.57;6.40;;;2.00;99.90;;;;;;5008753;28;20202;-76
2021/01/06 13:09:59;;;;;;;7.75;6.25;;;1.90;99.90;;;;;;5008072;28;20564;-76
2021/01/06 13:12:34;;;;;;;8.68;7.20;;;1.90;99.90;;;;;;5006905;28;20789;-77
2021/01/06 13:15:07;;;;;;;8.02;6.78;;;1.90;99.90;;;;;;5007532;28;20245;-77
2021/01/06 13:17:37;;;;;;;10.15;7.63;;;1.90;99.90;;;;;;5007932;28;20586;-76
2021/01/06 13:20:33;;;;;;;8.95;7.10;;;2.00;99.90;;;;;;5007374;28;20260;-76
2021/01/06 13:23:11;;;;;;;7.43;6.43;;;2.00;99.90;;;;;;5007562;28;20209;-76